Time;durP1;ratioP1;P1;durP2;ratioP2;P2;SDS_P1;SDS_P2;PMS_P1;PMS_P2;Temp;Humidity;BMP_temperature;BMP_pressure;BME280_temperature;BME280_humidity;BME280_pressure;Samples;Min_cycle;Max_cycle;Signal;HPM_P1;HPM_P2
2022/09/24 00:01:26;;;;;;;9.95;3.72;;;13.20;99.90;;;;;;5078928;28;20037;-67
2022/09/24 00:03:59;;;;;;;9.93;4.53;;;13.20;99.90;;;;;;5078832;28;20481;-67
2022/09/24 00:06:27;;;;;;;6.80;3.90;;;13.10;99.90;;;;;;5079543;28;20051;-67
2022/09/24 00:08:54;;;;;;;7.13;3.33;;;13.10;99.90;;;;;;5074350;28;20510;-66
2022/09/24 00:11:22;;;;;;;6.70;3.10;;;13.10;99.90;;;;;;5077806;28;20545;-67
2022/09/24 00:13:50;;;;;;;7.68;3.92;;;13.00;99.90;;;;;;5068316;28;20083;-67
2022/09/24 00:16:17;;;;;;;8.85;4.07;;;13.00;99.90;;;;;;5077105;28;20037;-67
2022/09/24 00:18:44;;;;;;;9.32;3.75;;;13.00;99.90;;;;;;5081846;28;20040;-67
2022/09/24 00:21:15;;;;;;;10.45;3.75;;;13.00;99.90;;;;;;5074874;28;20076;-67
2022/09/24 00:23:42;;;;;;;7.65;3.53;;;13.00;99.90;;;;;;5060360;28;20098;-67
2022/09/24 00:28:58;;;;;;;9.90;3.15;;;12.90;99.90;;;;;;5071218;28;20040;-67
2022/09/24 00:31:26;;;;;;;6.32;3.53;;;12.80;99.90;;;;;;5084168;28;20047;-67
2022/09/24 00:33:53;;;;;;;7.47;3.15;;;12.80;99.90;;;;;;5074674;28;20040;-66
2022/09/24 00:36:20;;;;;;;7.15;3.42;;;12.80;99.90;;;;;;5081026;28;20468;-68
2022/09/24 00:38:57;;;;;;;6.45;3.13;;;12.80;99.90;;;;;;5078737;28;20041;-67
2022/09/24 00:41:30;;;;;;;8.55;3.53;;;12.70;99.90;;;;;;5086083;28;20040;-67
2022/09/24 00:43:57;;;;;;;5.63;2.90;;;12.70;99.90;;;;;;5058465;28;20040;-67
2022/09/24 00:46:45;;;;;;;8.43;3.58;;;12.60;99.90;;;;;;5086259;28;20041;-67
2022/09/24 00:49:13;;;;;;;8.80;3.45;;;12.60;99.90;;;;;;5084913;28;20102;-67
2022/09/24 00:51:41;;;;;;;5.90;3.70;;;12.60;99.90;;;;;;5077207;28;20043;-69
2022/09/24 00:54:11;;;;;;;7.93;3.70;;;12.50;99.90;;;;;;5080966;28;20048;-67
2022/09/24 00:56:38;;;;;;;8.10;3.50;;;12.50;99.90;;;;;;5080050;28;20049;-66
2022/09/24 00:59:06;;;;;;;8.68;3.28;;;12.50;99.90;;;;;;5085795;28;20044;-66
2022/09/24 01:01:32;;;;;;;8.80;4.00;;;12.40;99.90;;;;;;5095107;28;20464;-67
2022/09/24 01:03:59;;;;;;;11.98;3.53;;;12.40;99.90;;;;;;5082370;28;20487;-66
2022/09/24 01:06:26;;;;;;;7.75;3.13;;;12.40;99.90;;;;;;5054871;28;20045;-66
2022/09/24 01:08:54;;;;;;;8.05;3.40;;;12.40;99.90;;;;;;5084739;28;20071;-66
2022/09/24 01:11:39;;;;;;;12.60;3.83;;;12.40;99.90;;;;;;5085428;28;20052;-67
2022/09/24 01:14:22;;;;;;;9.10;3.40;;;12.40;99.90;;;;;;5075009;28;20496;-66
2022/09/24 01:17:00;;;;;;;11.57;3.85;;;12.40;99.90;;;;;;5073979;28;20079;-66
2022/09/24 01:19:47;;;;;;;8.07;3.37;;;12.40;99.90;;;;;;5073435;28;20050;-67
2022/09/24 01:22:27;;;;;;;10.07;3.50;;;12.40;99.90;;;;;;5077324;28;20056;-66
2022/09/24 01:25:13;;;;;;;7.22;3.30;;;12.30;99.90;;;;;;5093969;28;20089;-67
2022/09/24 01:28:19;;;;;;;13.57;3.95;;;12.30;99.90;;;;;;5093568;28;20125;-69
2022/09/24 01:30:46;;;;;;;7.75;3.25;;;12.20;99.90;;;;;;5108730;28;20052;-66
2022/09/24 01:33:16;;;;;;;11.85;4.30;;;12.20;99.90;;;;;;5110664;28;20490;-67
2022/09/24 01:35:45;;;;;;;9.02;4.13;;;12.20;99.90;;;;;;5110091;28;20044;-66
2022/09/24 01:38:14;;;;;;;7.27;3.77;;;12.10;99.90;;;;;;5094060;28;20389;-66
2022/09/24 01:40:41;;;;;;;13.32;4.40;;;12.10;99.90;;;;;;5090865;28;20426;-67
2022/09/24 01:43:08;;;;;;;10.85;4.38;;;12.00;99.90;;;;;;5056809;28;20516;-67
2022/09/24 01:45:36;;;;;;;10.57;4.65;;;12.00;99.90;;;;;;5057060;28;20044;-67
2022/09/24 01:48:03;;;;;;;10.07;5.10;;;11.90;99.90;;;;;;5073364;28;20102;-67
2022/09/24 01:50:32;;;;;;;9.52;5.05;;;11.80;99.90;;;;;;5060578;28;20089;-67
2022/09/24 01:53:05;;;;;;;9.75;4.35;;;11.80;99.90;;;;;;5093336;28;20422;-67
2022/09/24 01:55:34;;;;;;;7.55;3.60;;;11.70;99.90;;;;;;5095273;28;20044;-67
2022/09/24 01:58:09;;;;;;;10.02;4.85;;;11.70;99.90;;;;;;5078730;28;20091;-68
2022/09/24 02:00:38;;;;;;;11.15;4.72;;;11.60;99.90;;;;;;5056873;28;20449;-67
2022/09/24 02:03:10;;;;;;;9.60;4.38;;;11.50;99.90;;;;;;5072965;28;20075;-67
2022/09/24 02:05:50;;;;;;;8.68;4.60;;;11.50;99.90;;;;;;5090126;28;20048;-67
2022/09/24 02:08:22;;;;;;;7.50;4.47;;;11.50;99.90;;;;;;5074637;28;20086;-66
2022/09/24 02:10:54;;;;;;;8.63;4.25;;;11.40;99.90;;;;;;5081439;28;20048;-68
2022/09/24 02:13:23;;;;;;;11.52;5.38;;;11.40;99.90;;;;;;5073746;28;20044;-68
2022/09/24 02:15:52;;;;;;;7.68;4.68;;;11.30;99.90;;;;;;5084061;28;20085;-67
2022/09/24 02:18:21;;;;;;;6.90;3.80;;;11.30;99.90;;;;;;5072573;28;20094;-66
2022/09/24 02:20:48;;;;;;;7.88;4.47;;;11.20;99.90;;;;;;5080370;28;20273;-66
2022/09/24 02:23:15;;;;;;;9.20;4.63;;;11.20;99.90;;;;;;5082934;28;20041;-67
2022/09/24 02:25:51;;;;;;;11.05;5.60;;;11.10;99.90;;;;;;5080653;28;20048;-67
2022/09/24 02:28:18;;;;;;;7.68;4.53;;;11.10;99.90;;;;;;5081756;28;20048;-67
2022/09/24 02:30:50;;;;;;;13.45;5.07;;;11.00;99.90;;;;;;5080458;28;20036;-67
2022/09/24 02:36:03;;;;;;;16.02;6.53;;;11.10;99.90;;;;;;5066853;28;20199;-67
2022/09/24 02:38:29;;;;;;;8.88;6.07;;;11.20;99.90;;;;;;5080126;28;20356;-67
2022/09/24 02:40:56;;;;;;;10.93;6.25;;;11.30;99.90;;;;;;5081882;28;20044;-67
2022/09/24 02:43:24;;;;;;;9.95;5.72;;;11.50;99.90;;;;;;5080541;28;20090;-66
2022/09/24 02:45:51;;;;;;;11.95;8.52;;;11.60;99.90;;;;;;5078548;28;20048;-68
2022/09/24 02:48:18;;;;;;;14.50;7.82;;;11.70;99.90;;;;;;5082864;28;20036;-66
2022/09/24 02:50:45;;;;;;;16.17;9.25;;;11.70;99.90;;;;;;5081456;28;20072;-67
2022/09/24 02:53:12;;;;;;;22.30;11.57;;;11.70;99.90;;;;;;5082011;28;20544;-68
2022/09/24 02:55:39;;;;;;;18.20;12.95;;;11.70;99.90;;;;;;5086137;28;20105;-67
2022/09/24 02:58:06;;;;;;;19.33;12.02;;;11.70;99.90;;;;;;5081247;28;20040;-67
2022/09/24 03:00:32;;;;;;;20.88;12.65;;;11.70;99.90;;;;;;5081191;28;20041;-68
2022/09/24 03:02:59;;;;;;;21.38;11.85;;;11.70;99.90;;;;;;5080857;28;20036;-67
2022/09/24 03:05:26;;;;;;;20.73;13.32;;;11.70;99.90;;;;;;5082503;28;20055;-67
2022/09/24 03:07:53;;;;;;;25.95;13.45;;;11.80;99.90;;;;;;5081186;28;20036;-67
2022/09/24 03:10:20;;;;;;;21.50;13.00;;;11.80;99.90;;;;;;5083838;28;20040;-67
2022/09/24 03:12:47;;;;;;;27.85;12.40;;;11.80;99.90;;;;;;5084126;28;20035;-67
2022/09/24 03:15:14;;;;;;;19.25;11.88;;;11.90;99.90;;;;;;5084007;28;20048;-67
2022/09/24 03:17:41;;;;;;;21.95;13.15;;;11.90;99.90;;;;;;5076358;28;20040;-67
2022/09/24 03:20:08;;;;;;;18.52;13.05;;;11.90;99.90;;;;;;5082632;28;20044;-67
2022/09/24 03:22:35;;;;;;;17.05;10.93;;;11.90;99.90;;;;;;5063482;28;20106;-67
2022/09/24 03:25:02;;;;;;;20.08;11.55;;;11.90;99.90;;;;;;5072446;28;20488;-68
2022/09/24 03:27:29;;;;;;;20.75;11.43;;;12.00;99.90;;;;;;5075062;28;20438;-67
2022/09/24 03:32:41;;;;;;;13.38;9.32;;;12.00;99.90;;;;;;5080110;28;20040;-67
2022/09/24 03:35:10;;;;;;;15.13;9.25;;;12.10;99.90;;;;;;5070914;28;20935;-66
2022/09/24 03:37:37;;;;;;;15.48;8.25;;;12.20;99.90;;;;;;5058363;28;20088;-69
2022/09/24 03:40:06;;;;;;;13.75;8.50;;;12.20;99.90;;;;;;5079539;28;20094;-66
2022/09/24 03:42:33;;;;;;;13.82;8.32;;;12.30;99.90;;;;;;5073673;28;20044;-66
2022/09/24 03:45:00;;;;;;;56.17;42.72;;;12.30;99.90;;;;;;5080364;28;20048;-74
2022/09/24 03:47:28;;;;;;;22.50;19.52;;;12.50;99.90;;;;;;5082475;28;20058;-70
2022/09/24 03:49:55;;;;;;;19.10;14.30;;;12.50;99.90;;;;;;5083731;28;20044;-78
2022/09/24 03:52:22;;;;;;;16.77;9.73;;;12.60;99.90;;;;;;5081155;28;20053;-73
2022/09/24 03:54:49;;;;;;;33.78;26.80;;;12.60;99.90;;;;;;5075320;28;20032;-73
2022/09/24 03:57:15;;;;;;;23.98;18.52;;;12.60;99.90;;;;;;5092930;28;20078;-68
2022/09/24 03:59:43;;;;;;;16.30;9.55;;;12.60;99.90;;;;;;5078516;28;20037;-67
2022/09/24 04:02:10;;;;;;;12.40;8.65;;;12.60;99.90;;;;;;5081373;28;20044;-69
2022/09/24 04:04:37;;;;;;;18.80;10.02;;;12.50;99.90;;;;;;5083576;28;20039;-70
2022/09/24 04:07:04;;;;;;;14.38;8.00;;;12.40;99.90;;;;;;5075707;28;20040;-70
2022/09/24 04:09:31;;;;;;;13.88;8.43;;;12.40;99.90;;;;;;5076149;28;20048;-70
2022/09/24 04:11:58;;;;;;;12.10;8.40;;;12.40;99.90;;;;;;5063925;28;20036;-71
2022/09/24 04:14:24;;;;;;;11.80;8.20;;;12.40;99.90;;;;;;5080087;28;20106;-69
2022/09/24 04:16:52;;;;;;;15.52;9.20;;;12.40;99.90;;;;;;5079034;28;20538;-70
2022/09/24 04:19:19;;;;;;;14.35;8.82;;;12.40;99.90;;;;;;5084578;28;20437;-71
2022/09/24 04:21:46;;;;;;;16.65;9.15;;;12.40;99.90;;;;;;5074450;28;20102;-69
2022/09/24 04:24:14;;;;;;;19.70;10.48;;;12.40;99.90;;;;;;5084600;28;20102;-69
2022/09/24 04:26:40;;;;;;;13.43;8.90;;;12.30;99.90;;;;;;5081680;28;20507;-69
2022/09/24 04:29:08;;;;;;;14.00;8.85;;;12.30;99.90;;;;;;5083930;28;20048;-69
2022/09/24 04:31:35;;;;;;;12.65;8.90;;;12.20;99.90;;;;;;5091143;28;20431;-70
2022/09/24 04:34:02;;;;;;;13.68;9.40;;;12.20;99.90;;;;;;5071711;28;20121;-69
2022/09/24 04:36:29;;;;;;;12.90;9.35;;;12.10;99.90;;;;;;5085190;28;20360;-69
2022/09/24 04:38:56;;;;;;;18.70;9.30;;;12.10;99.90;;;;;;5081211;28;20376;-69
2022/09/24 04:41:23;;;;;;;15.10;9.13;;;12.10;99.90;;;;;;5082367;28;20040;-69
2022/09/24 04:43:50;;;;;;;14.57;9.23;;;12.00;99.90;;;;;;5077951;28;20086;-69
2022/09/24 04:46:18;;;;;;;19.08;9.75;;;12.00;99.90;;;;;;5087249;28;20467;-70
2022/09/24 04:48:45;;;;;;;18.83;9.20;;;12.00;99.90;;;;;;5087213;28;20044;-69
2022/09/24 04:51:12;;;;;;;15.50;9.95;;;11.90;99.90;;;;;;5079401;28;20072;-69
2022/09/24 04:53:39;;;;;;;15.65;9.50;;;11.90;99.90;;;;;;5078937;28;20044;-69
2022/09/24 04:56:10;;;;;;;16.35;10.15;;;11.80;99.90;;;;;;5086569;28;20473;-69
2022/09/24 04:58:38;;;;;;;13.80;9.20;;;11.80;99.90;;;;;;5080184;28;20052;-69
2022/09/24 05:01:05;;;;;;;18.27;8.57;;;11.70;99.90;;;;;;5082718;28;20079;-70
2022/09/24 05:03:32;;;;;;;15.35;8.27;;;11.70;99.90;;;;;;5079871;28;20082;-70
2022/09/24 05:06:00;;;;;;;15.40;8.27;;;11.70;99.90;;;;;;5069848;28;20036;-69
2022/09/24 05:08:27;;;;;;;15.40;9.23;;;11.70;99.90;;;;;;5076975;28;20406;-69
2022/09/24 05:10:54;;;;;;;15.80;10.07;;;11.60;99.90;;;;;;5085679;28;20089;-69
2022/09/24 05:13:21;;;;;;;17.05;8.98;;;11.60;99.90;;;;;;5081868;28;20040;-69
2022/09/24 05:15:48;;;;;;;12.55;7.25;;;11.60;99.90;;;;;;5082311;28;20072;-69
2022/09/24 05:18:15;;;;;;;17.27;8.55;;;11.50;99.90;;;;;;5082210;28;20399;-69
2022/09/24 05:20:42;;;;;;;14.75;8.40;;;11.50;99.90;;;;;;5099409;28;20570;-69
2022/09/24 05:23:09;;;;;;;12.63;7.75;;;11.50;99.90;;;;;;5078945;28;20041;-69
2022/09/24 05:27:09;;;;;;;14.65;7.80;;;11.50;99.90;;;;;;5091878;28;20094;-69
2022/09/24 05:28:25;;;;;;;15.00;8.27;;;11.50;99.90;;;;;;5083974;28;20483;-69
2022/09/24 05:30:57;;;;;;;13.18;8.15;;;11.40;99.90;;;;;;5080359;28;20468;-69
2022/09/24 05:33:24;;;;;;;17.02;10.00;;;11.40;99.90;;;;;;5075812;28;20047;-69
2022/09/24 05:35:55;;;;;;;19.00;9.95;;;11.40;99.90;;;;;;5096720;28;20048;-69
2022/09/24 05:38:22;;;;;;;18.92;9.88;;;11.30;99.90;;;;;;5070117;28;20051;-69
2022/09/24 05:40:49;;;;;;;14.82;9.10;;;11.30;99.90;;;;;;5084713;28;20036;-69
2022/09/24 05:43:18;;;;;;;14.07;8.48;;;11.30;99.90;;;;;;5081447;28;20051;-69
2022/09/24 05:45:45;;;;;;;13.05;8.95;;;11.30;99.90;;;;;;5096644;28;20043;-70
2022/09/24 05:48:12;;;;;;;12.80;9.55;;;11.20;99.90;;;;;;5084771;28;20114;-69
2022/09/24 05:50:39;;;;;;;20.55;10.48;;;11.20;99.90;;;;;;5077290;28;20113;-69
2022/09/24 05:53:05;;;;;;;12.82;9.13;;;11.10;99.90;;;;;;5098263;28;20056;-69
2022/09/24 05:55:32;;;;;;;16.95;8.82;;;11.10;99.90;;;;;;5074574;28;20111;-68
2022/09/24 05:58:06;;;;;;;16.25;9.52;;;11.10;99.90;;;;;;5099503;28;20040;-68
2022/09/24 06:00:34;;;;;;;16.35;9.18;;;11.10;99.90;;;;;;5075334;28;20048;-69
2022/09/24 06:03:04;;;;;;;15.70;8.95;;;11.00;99.90;;;;;;5082201;28;20119;-70
2022/09/24 06:05:33;;;;;;;14.40;9.27;;;11.00;99.90;;;;;;5061722;28;20044;-68
2022/09/24 06:08:02;;;;;;;13.95;8.18;;;11.00;99.90;;;;;;5079504;28;20040;-68
2022/09/24 06:10:29;;;;;;;16.42;8.63;;;11.00;99.90;;;;;;5075261;28;20472;-69
2022/09/24 06:12:56;;;;;;;19.73;9.45;;;11.10;99.90;;;;;;5058377;28;20048;-69
2022/09/24 06:15:26;;;;;;;15.02;8.02;;;11.10;99.90;;;;;;5083148;28;20071;-68
2022/09/24 06:17:53;;;;;;;11.40;8.10;;;11.10;99.90;;;;;;5089059;28;20433;-69
2022/09/24 06:20:21;;;;;;;14.23;8.02;;;11.20;99.90;;;;;;5087093;28;20114;-69
2022/09/24 06:22:49;;;;;;;13.43;6.68;;;11.20;99.90;;;;;;5097309;28;20430;-69
2022/09/24 06:25:16;;;;;;;12.82;8.52;;;11.20;99.90;;;;;;5080200;28;20045;-68
2022/09/24 06:27:43;;;;;;;11.70;7.45;;;11.20;99.90;;;;;;5080638;28;20051;-69
2022/09/24 06:30:10;;;;;;;14.77;6.95;;;11.20;99.90;;;;;;5086127;28;20048;-69
2022/09/24 06:32:37;;;;;;;12.85;7.25;;;11.20;99.90;;;;;;5079508;28;20063;-68
2022/09/24 06:35:05;;;;;;;9.68;8.02;;;11.20;99.90;;;;;;5085122;28;20101;-69
2022/09/24 06:37:32;;;;;;;16.33;8.10;;;11.30;99.90;;;;;;5085110;28;20040;-69
2022/09/24 06:39:59;;;;;;;13.93;6.90;;;11.30;99.90;;;;;;5081665;28;20032;-68
2022/09/24 06:42:26;;;;;;;11.55;6.90;;;11.40;99.90;;;;;;5080075;28;20048;-68
2022/09/24 06:44:53;;;;;;;17.35;7.40;;;11.40;99.90;;;;;;5084742;28;20468;-69
2022/09/24 06:47:20;;;;;;;12.38;6.28;;;11.40;99.90;;;;;;5085220;28;20082;-67
2022/09/24 06:49:49;;;;;;;10.90;6.10;;;11.50;99.90;;;;;;5081893;28;20040;-67
2022/09/24 06:52:16;;;;;;;16.30;7.10;;;11.50;99.90;;;;;;5081011;28;20044;-68
2022/09/24 06:54:43;;;;;;;13.30;7.45;;;11.60;99.90;;;;;;5081331;28;20036;-68
2022/09/24 06:57:10;;;;;;;11.77;6.72;;;11.60;99.90;;;;;;5084591;28;20051;-68
2022/09/24 06:59:36;;;;;;;12.73;7.07;;;11.60;99.90;;;;;;5082943;28;20430;-68
2022/09/24 07:02:03;;;;;;;14.93;6.70;;;11.60;99.90;;;;;;5064632;28;20137;-68
2022/09/24 07:04:30;;;;;;;12.65;6.82;;;11.70;99.90;;;;;;5078623;28;20048;-69
2022/09/24 07:09:43;;;;;;;12.05;7.57;;;11.80;99.90;;;;;;5085340;28;20040;-70
2022/09/24 07:12:09;;;;;;;12.02;7.63;;;11.70;99.90;;;;;;5088768;28;20479;-68
2022/09/24 07:14:36;;;;;;;13.25;7.55;;;11.80;99.90;;;;;;5074356;28;20051;-68
2022/09/24 07:17:03;;;;;;;13.02;7.90;;;11.80;99.90;;;;;;5082410;28;20051;-68
2022/09/24 07:19:30;;;;;;;10.43;6.80;;;11.80;99.90;;;;;;5083803;28;20047;-68
2022/09/24 07:21:57;;;;;;;12.30;7.70;;;11.90;99.90;;;;;;5095106;28;20525;-68
2022/09/24 07:24:24;;;;;;;12.00;6.55;;;12.00;99.90;;;;;;5086885;28;20100;-68
2022/09/24 07:26:51;;;;;;;11.25;7.07;;;12.10;99.90;;;;;;5083770;28;20075;-68
2022/09/24 07:29:18;;;;;;;11.63;7.72;;;12.10;99.90;;;;;;5080488;28;20468;-68
2022/09/24 07:31:45;;;;;;;16.42;8.23;;;12.10;99.90;;;;;;5075712;28;20074;-68
2022/09/24 07:34:13;;;;;;;15.77;8.63;;;12.10;99.90;;;;;;5079549;28;20075;-68
2022/09/24 07:36:40;;;;;;;18.30;7.47;;;12.00;99.90;;;;;;5079232;28;20040;-70
2022/09/24 07:39:07;;;;;;;10.68;7.55;;;12.00;99.90;;;;;;5090955;28;20443;-68
2022/09/24 07:41:34;;;;;;;11.77;7.22;;;12.00;99.90;;;;;;5078302;28;20036;-68
2022/09/24 07:44:08;;;;;;;10.60;6.90;;;12.00;99.90;;;;;;5061950;28;20036;-69
2022/09/24 07:46:35;;;;;;;14.02;7.22;;;12.00;99.90;;;;;;5082667;28;20043;-68
2022/09/24 07:49:02;;;;;;;13.02;7.43;;;12.00;99.90;;;;;;5080179;28;20044;-68
2022/09/24 07:51:29;;;;;;;12.50;7.80;;;12.10;99.90;;;;;;5076582;28;20102;-71
2022/09/24 07:53:57;;;;;;;15.82;7.80;;;12.20;99.90;;;;;;5077125;28;20037;-69
2022/09/24 07:56:24;;;;;;;15.20;7.68;;;12.20;99.90;;;;;;5087481;28;20347;-68
2022/09/24 07:58:51;;;;;;;10.70;7.65;;;12.30;99.90;;;;;;5063272;28;20041;-69
2022/09/24 08:01:18;;;;;;;14.93;9.35;;;12.30;99.90;;;;;;5090211;28;20048;-68
2022/09/24 08:03:45;;;;;;;18.52;9.70;;;12.30;99.90;;;;;;5083117;28;20036;-69
2022/09/24 08:06:12;;;;;;;13.27;8.95;;;12.20;99.90;;;;;;5084041;28;20048;-69
2022/09/24 08:08:39;;;;;;;14.50;8.68;;;12.20;99.90;;;;;;5077542;28;20048;-69
2022/09/24 08:11:06;;;;;;;11.02;7.95;;;12.30;99.90;;;;;;5086466;28;20058;-68
2022/09/24 08:13:33;;;;;;;11.80;8.60;;;12.40;99.90;;;;;;5073490;28;20054;-68
2022/09/24 08:16:01;;;;;;;13.07;9.13;;;12.40;99.90;;;;;;5094303;28;20060;-68
2022/09/24 08:18:30;;;;;;;12.88;8.48;;;12.50;99.90;;;;;;5079931;28;20057;-68
2022/09/24 08:20:58;;;;;;;12.13;10.02;;;12.50;99.90;;;;;;5094340;28;20036;-68
2022/09/24 08:23:26;;;;;;;10.82;7.80;;;12.40;99.90;;;;;;5098245;28;20471;-69
2022/09/24 08:25:54;;;;;;;12.30;9.50;;;12.50;99.90;;;;;;5081828;28;20044;-68
2022/09/24 08:28:21;;;;;;;13.57;9.18;;;12.60;99.90;;;;;;5090904;28;20037;-68
2022/09/24 08:30:48;;;;;;;12.13;8.18;;;12.70;99.90;;;;;;5084232;28;20125;-68
2022/09/24 08:33:15;;;;;;;14.55;8.70;;;12.70;99.90;;;;;;5078930;28;20053;-68
2022/09/24 08:35:42;;;;;;;14.60;9.43;;;12.70;99.90;;;;;;5078000;28;20055;-68
2022/09/24 08:38:09;;;;;;;17.35;9.15;;;12.80;99.90;;;;;;5083356;28;20076;-69
2022/09/24 08:40:57;;;;;;;17.35;9.82;;;12.80;99.90;;;;;;5072528;28;20101;-68
2022/09/24 08:43:42;;;;;;;11.85;8.48;;;12.80;99.90;;;;;;5065417;28;20341;-68
2022/09/24 08:49:11;;;;;;;13.13;8.32;;;13.10;99.90;;;;;;5078419;28;20052;-69
2022/09/24 08:52:04;;;;;;;15.48;8.48;;;13.20;99.90;;;;;;5068511;28;20055;-68
2022/09/24 08:54:31;;;;;;;12.20;8.27;;;13.30;99.90;;;;;;5082382;28;20540;-68
2022/09/24 08:56:57;;;;;;;11.40;8.23;;;13.30;99.90;;;;;;5071245;28;20540;-68
2022/09/24 08:59:31;;;;;;;11.97;7.50;;;13.40;99.90;;;;;;5101543;28;20134;-69
2022/09/24 09:02:29;;;;;;;11.70;8.10;;;13.60;99.90;;;;;;5077446;28;20048;-68
2022/09/24 09:05:17;;;;;;;12.23;8.32;;;13.70;99.90;;;;;;5080951;28;20060;-68
2022/09/24 09:08:00;;;;;;;9.60;7.82;;;13.60;99.90;;;;;;5072751;28;20472;-68
2022/09/24 09:10:35;;;;;;;10.48;7.05;;;13.80;99.90;;;;;;5079801;28;20052;-69
2022/09/24 09:13:16;;;;;;;12.80;7.97;;;13.90;99.90;;;;;;5074564;28;20361;-68
2022/09/24 09:15:56;;;;;;;11.98;7.57;;;14.00;99.90;;;;;;5078805;28;20495;-68
2022/09/24 09:18:27;;;;;;;14.43;7.18;;;14.00;99.90;;;;;;5059686;28;20051;-63
2022/09/24 09:20:55;;;;;;;21.40;16.40;;;14.10;99.90;;;;;;5095170;28;20036;-70
2022/09/24 09:23:32;;;;;;;16.60;8.50;;;14.20;99.90;;;;;;5043995;28;20048;-73
2022/09/24 09:25:58;;;;;;;11.73;7.00;;;14.30;99.90;;;;;;5079976;28;20064;-66
2022/09/24 09:32:42;;;;;;;10.98;6.55;;;14.30;99.90;;;;;;5083909;28;20059;-68
2022/09/24 09:35:15;;;;;;;210.38;188.38;;;14.20;99.90;;;;;;5094311;28;20044;-64
2022/09/24 09:37:46;;;;;;;34.47;22.70;;;14.10;99.90;;;;;;5082669;28;20043;-65
2022/09/24 09:40:31;;;;;;;19.15;11.68;;;14.10;99.90;;;;;;5089557;28;20083;-71
2022/09/24 09:43:08;;;;;;;16.33;7.95;;;14.20;99.90;;;;;;5079776;28;20414;-68
2022/09/24 09:45:58;;;;;;;9.32;6.07;;;14.20;99.90;;;;;;5105514;28;20494;-69
2022/09/24 09:48:27;;;;;;;11.25;6.22;;;14.30;99.90;;;;;;5071565;28;20105;-67
2022/09/24 09:51:03;;;;;;;10.48;5.00;;;14.30;99.90;;;;;;5079702;28;20085;-69
2022/09/24 09:53:30;;;;;;;10.25;5.70;;;14.50;99.90;;;;;;5069066;28;20102;-72
2022/09/24 09:55:59;;;;;;;15.23;6.10;;;14.50;99.90;;;;;;5087009;28;20047;-72
2022/09/24 09:58:30;;;;;;;29.75;17.63;;;14.50;99.90;;;;;;5081454;28;20101;-71
2022/09/24 10:01:11;;;;;;;13.10;7.75;;;14.60;99.90;;;;;;5101789;28;20130;-72
2022/09/24 10:03:50;;;;;;;19.20;7.40;;;14.70;99.90;;;;;;5070193;28;20464;-67
2022/09/24 10:06:25;;;;;;;10.55;5.32;;;14.80;99.90;;;;;;5083348;28;20036;-71
2022/09/24 10:08:52;;;;;;;8.13;3.85;;;14.90;99.90;;;;;;5080355;28;20052;-69
2022/09/24 10:11:21;;;;;;;5.47;3.03;;;15.00;99.90;;;;;;5076526;28;20122;-68
2022/09/24 10:14:01;;;;;;;6.35;3.80;;;15.10;99.90;;;;;;5074773;28;20431;-73
2022/09/24 10:16:29;;;;;;;7.35;2.97;;;15.20;99.90;;;;;;5081781;28;20499;-67
2022/09/24 10:18:56;;;;;;;6.28;3.60;;;15.20;99.90;;;;;;5086403;28;20041;-66
2022/09/24 10:21:33;;;;;;;6.95;4.60;;;15.30;99.90;;;;;;5083274;28;20045;-67
2022/09/24 10:24:02;;;;;;;6.95;2.78;;;15.40;99.90;;;;;;5060634;28;20040;-67
2022/09/24 10:26:38;;;;;;;7.53;3.17;;;15.60;99.90;;;;;;5075750;28;20045;-65
2022/09/24 10:32:03;;;;;;;10.75;4.07;;;15.80;99.90;;;;;;5073755;28;20075;-66
2022/09/24 10:34:30;;;;;;;7.22;3.03;;;15.90;99.90;;;;;;5079313;28;20118;-68
2022/09/24 10:37:02;;;;;;;6.50;2.88;;;15.90;99.90;;;;;;5080349;28;20032;-64
2022/09/24 10:39:36;;;;;;;6.32;2.22;;;15.90;99.90;;;;;;5074482;28;20036;-67
2022/09/24 10:42:04;;;;;;;8.57;2.90;;;16.10;99.90;;;;;;5077427;28;20098;-67
2022/09/24 10:44:35;;;;;;;8.10;2.78;;;16.10;99.90;;;;;;5081628;28;20036;-65
2022/09/24 10:47:14;;;;;;;5.97;2.47;;;16.20;99.90;;;;;;5063793;28;20037;-65
2022/09/24 10:49:57;;;;;;;9.43;3.45;;;16.20;99.90;;;;;;5079608;28;20036;-65
2022/09/24 10:52:42;;;;;;;8.02;3.42;;;16.30;99.90;;;;;;5087980;28;20394;-65
2022/09/24 10:55:21;;;;;;;7.85;3.25;;;16.50;99.90;;;;;;5080818;28;20037;-65
2022/09/24 10:58:03;;;;;;;6.70;2.70;;;16.60;99.90;;;;;;5088449;28;20049;-65
2022/09/24 11:01:10;;;;;;;5.28;2.50;;;16.60;99.90;;;;;;5081291;28;20180;-64
2022/09/24 11:03:59;;;;;;;5.63;2.20;;;16.60;99.90;;;;;;5077647;28;20086;-65
2022/09/24 11:06:44;;;;;;;7.38;2.50;;;16.50;99.90;;;;;;5082384;28;20109;-65
2022/09/24 11:09:27;;;;;;;7.18;2.85;;;16.50;99.90;;;;;;5085656;28;20036;-65
2022/09/24 11:12:26;;;;;;;10.63;5.28;;;16.40;99.90;;;;;;5091043;28;20048;-65
2022/09/24 11:15:41;;;;;;;5.43;2.42;;;16.40;99.90;;;;;;5045678;28;20139;-66
2022/09/24 11:18:25;;;;;;;7.10;3.20;;;16.60;99.90;;;;;;5024911;28;20053;-68
2022/09/24 11:21:31;;;;;;;6.45;2.53;;;16.60;99.90;;;;;;5075235;28;20110;-66
2022/09/24 11:24:22;;;;;;;4.68;2.08;;;16.70;99.90;;;;;;5079112;28;20037;-67
2022/09/24 11:27:01;;;;;;;69.00;61.03;;;16.90;99.90;;;;;;5082664;28;20059;-65
2022/09/24 11:29:31;;;;;;;13.45;11.15;;;16.80;99.90;;;;;;5078951;28;20036;-65
2022/09/24 11:32:32;;;;;;;6.72;4.00;;;17.00;99.90;;;;;;5072059;28;20120;-66
2022/09/24 11:35:29;;;;;;;4.60;2.92;;;17.00;99.90;;;;;;5049218;28;20079;-70
2022/09/24 11:38:05;;;;;;;4.80;1.80;;;17.10;99.90;;;;;;5084348;28;20100;-70
2022/09/24 11:40:56;;;;;;;4.07;1.60;;;17.10;99.90;;;;;;5078402;28;20084;-71
2022/09/24 11:43:42;;;;;;;5.60;1.40;;;16.90;99.90;;;;;;5077713;28;20036;-71
2022/09/24 11:46:30;;;;;;;4.53;2.00;;;16.80;99.90;;;;;;5080381;28;20365;-70
2022/09/24 11:49:34;;;;;;;4.65;1.95;;;16.70;99.90;;;;;;5079905;28;20044;-70
2022/09/24 11:52:31;;;;;;;7.60;1.95;;;16.70;99.90;;;;;;5078973;28;20083;-69
2022/09/24 11:55:16;;;;;;;5.32;1.75;;;16.80;99.90;;;;;;5072281;28;20472;-70
2022/09/24 11:57:51;;;;;;;7.00;2.10;;;16.80;99.90;;;;;;5079096;28;20051;-70
2022/09/24 12:00:19;;;;;;;6.65;2.05;;;16.90;99.90;;;;;;5063562;28;20107;-69
2022/09/24 12:02:59;;;;;;;4.28;1.73;;;17.00;99.90;;;;;;5095022;28;20032;-71
2022/09/24 12:05:33;;;;;;;7.88;3.42;;;17.10;99.90;;;;;;5084605;28;20522;-72
2022/09/24 12:08:10;;;;;;;7.10;2.72;;;17.20;99.90;;;;;;5077234;28;20051;-70
2022/09/24 12:10:42;;;;;;;7.38;2.17;;;17.20;99.90;;;;;;5076846;28;20044;-69
2022/09/24 12:13:14;;;;;;;5.68;2.72;;;17.10;99.90;;;;;;5070637;28;20052;-69
2022/09/24 12:15:46;;;;;;;5.25;2.10;;;17.20;99.90;;;;;;5086274;28;20581;-69
2022/09/24 12:18:26;;;;;;;7.53;2.60;;;17.30;99.90;;;;;;5075834;28;20040;-71
2022/09/24 12:21:00;;;;;;;6.10;1.52;;;17.40;99.90;;;;;;5087247;28;20048;-69
2022/09/24 12:23:29;;;;;;;3.45;1.63;;;17.40;99.90;;;;;;5092514;28;20041;-70
2022/09/24 12:25:57;;;;;;;4.95;1.55;;;17.40;99.90;;;;;;5091516;28;20036;-70
2022/09/24 12:34:17;;;;;;;3.22;1.25;;;17.60;99.90;;;;;;5091262;28;20052;-70
2022/09/24 12:36:56;;;;;;;3.95;2.28;;;17.60;99.90;;;;;;5078830;28;20041;-69
2022/09/24 12:39:27;;;;;;;3.67;1.75;;;17.60;99.90;;;;;;5075111;28;20361;-69
2022/09/24 12:42:12;;;;;;;4.20;2.33;;;17.40;99.90;;;;;;5071114;28;20038;-69
2022/09/24 12:44:43;;;;;;;3.95;1.67;;;17.40;99.90;;;;;;5080020;28;20044;-68
2022/09/24 12:47:22;;;;;;;17.40;2.75;;;17.60;99.90;;;;;;5095092;28;20044;-70
2022/09/24 12:50:00;;;;;;;3.55;1.35;;;17.70;99.90;;;;;;5059440;28;20075;-70
2022/09/24 12:52:39;;;;;;;4.05;1.63;;;17.80;99.90;;;;;;5065551;28;20048;-70
2022/09/24 12:55:22;;;;;;;3.53;1.30;;;17.70;99.90;;;;;;5081573;28;20051;-72
2022/09/24 12:58:03;;;;;;;3.63;1.30;;;17.70;99.90;;;;;;5077864;28;20787;-70
2022/09/24 13:00:44;;;;;;;7.07;1.73;;;17.60;99.90;;;;;;5090403;28;20056;-71
2022/09/24 13:03:34;;;;;;;3.58;1.30;;;17.50;99.90;;;;;;5068337;28;20049;-70
2022/09/24 13:06:02;;;;;;;3.35;1.40;;;17.50;99.90;;;;;;5085363;28;20826;-70
2022/09/24 13:08:37;;;;;;;9.27;5.03;;;17.60;99.90;;;;;;5086775;28;20052;-70
2022/09/24 13:11:23;;;;;;;9.35;6.60;;;17.70;99.90;;;;;;5064557;28;20040;-71
2022/09/24 13:14:20;;;;;;;10.15;5.90;;;17.80;99.90;;;;;;5056770;28;20044;-70
2022/09/24 13:16:49;;;;;;;4.32;3.22;;;17.90;99.90;;;;;;5048787;28;20052;-69
2022/09/24 13:19:26;;;;;;;7.53;4.03;;;18.00;99.90;;;;;;5065674;28;20772;-70
2022/09/24 13:21:55;;;;;;;7.15;2.70;;;17.90;99.90;;;;;;5073128;28;20085;-72
2022/09/24 13:24:49;;;;;;;4.13;1.60;;;18.00;99.90;;;;;;5062765;28;20041;-72
2022/09/24 13:27:40;;;;;;;5.05;1.67;;;18.00;99.90;;;;;;5065318;28;20056;-71
2022/09/24 13:30:18;;;;;;;6.00;1.80;;;18.00;99.90;;;;;;5072117;28;20144;-70
2022/09/24 13:33:29;;;;;;;7.13;1.45;;;18.00;99.90;;;;;;5087278;28;20762;-70